createdAt,value
2018-10-18T00:00:14.659Z,15.70
2018-10-18T00:02:44.035Z,15.60
2018-10-18T00:05:13.210Z,15.60
2018-10-18T00:07:42.449Z,15.60
2018-10-18T00:10:11.678Z,15.60
2018-10-18T00:12:41.005Z,15.60
2018-10-18T00:15:10.391Z,15.60
2018-10-18T00:17:46.134Z,15.60
2018-10-18T00:20:17.259Z,15.60
2018-10-18T00:22:46.778Z,15.50
2018-10-18T00:25:16.534Z,15.50
2018-10-18T00:27:45.806Z,15.50
2018-10-18T00:30:15.742Z,15.50
2018-10-18T00:32:45.476Z,15.50
2018-10-18T00:35:14.666Z,15.50
2018-10-18T00:37:44.682Z,15.50
2018-10-18T00:40:13.995Z,15.60
2018-10-18T00:42:43.582Z,15.50
2018-10-18T00:45:12.798Z,15.60
2018-10-18T00:47:41.811Z,15.60
2018-10-18T00:50:12.024Z,15.60
2018-10-18T00:52:41.476Z,15.60
2018-10-18T00:55:11.576Z,15.60
2018-10-18T00:57:41.683Z,15.60
2018-10-18T01:00:12.571Z,15.60
2018-10-18T01:02:41.842Z,15.60
2018-10-18T01:05:11.131Z,15.60
2018-10-18T01:07:40.540Z,15.60
2018-10-18T01:10:09.839Z,15.60
2018-10-18T01:12:39.236Z,15.60
2018-10-18T01:15:08.788Z,15.60
2018-10-18T01:17:38.054Z,15.60
2018-10-18T01:20:07.531Z,15.60
2018-10-18T01:22:36.761Z,15.60
2018-10-18T01:25:06.811Z,15.60
2018-10-18T01:27:35.938Z,15.60
2018-10-18T01:30:06.037Z,15.50
2018-10-18T01:32:35.439Z,15.60
2018-10-18T01:35:04.671Z,15.60
2018-10-18T01:37:33.806Z,15.70
2018-10-18T01:40:02.994Z,15.70
2018-10-18T01:42:32.723Z,15.70
2018-10-18T01:45:02.048Z,15.60
2018-10-18T01:47:31.110Z,15.70
2018-10-18T01:50:00.306Z,15.60
2018-10-18T01:52:29.630Z,15.60
2018-10-18T01:54:58.860Z,15.50
2018-10-18T01:57:28.120Z,15.40
2018-10-18T01:59:57.350Z,15.50
2018-10-18T02:02:26.852Z,15.50
2018-10-18T02:04:56.076Z,15.50
2018-10-18T02:07:25.292Z,15.30
2018-10-18T02:09:54.308Z,15.30
2018-10-18T02:12:23.497Z,15.30
2018-10-18T02:14:52.751Z,15.30
2018-10-18T02:17:22.002Z,15.20
2018-10-18T02:19:51.093Z,15.20
2018-10-18T02:22:20.578Z,15.20
2018-10-18T02:24:50.836Z,15.20
2018-10-18T02:27:20.088Z,15.10
2018-10-18T02:29:49.318Z,15.10
2018-10-18T02:32:18.633Z,15.00
2018-10-18T02:34:48.006Z,15.00
2018-10-18T02:37:17.141Z,15.00
2018-10-18T02:39:46.282Z,15.00
2018-10-18T02:42:16.386Z,14.90
2018-10-18T02:44:45.698Z,15.00
2018-10-18T02:47:14.813Z,15.00
2018-10-18T02:49:43.954Z,15.00
2018-10-18T02:52:13.354Z,15.00
2018-10-18T02:54:42.799Z,15.00
2018-10-18T02:57:11.953Z,15.00
2018-10-18T02:59:41.186Z,15.00
2018-10-18T03:02:10.673Z,15.00
2018-10-18T03:04:39.947Z,15.00
2018-10-18T03:07:09.098Z,14.90
2018-10-18T03:09:38.354Z,15.00
2018-10-18T03:12:07.669Z,14.90
2018-10-18T03:14:36.955Z,14.90
2018-10-18T03:17:06.673Z,14.90
2018-10-18T03:19:36.436Z,14.90
2018-10-18T03:22:05.729Z,14.80
2018-10-18T03:24:35.054Z,14.80
2018-10-18T03:27:04.201Z,14.70
2018-10-18T03:29:33.373Z,14.70
2018-10-18T03:32:02.677Z,14.70
2018-10-18T03:34:32.040Z,14.60
2018-10-18T03:37:01.861Z,14.60
2018-10-18T03:39:31.223Z,14.50
2018-10-18T03:42:00.400Z,14.40
2018-10-18T03:44:29.738Z,14.40
2018-10-18T03:46:58.932Z,14.30
2018-10-18T03:49:28.095Z,14.30
2018-10-18T03:51:57.349Z,14.20
2018-10-18T03:54:26.567Z,14.10
2018-10-18T03:56:56.173Z,14.10
2018-10-18T03:59:25.365Z,14.10
2018-10-18T04:01:54.605Z,14.00
2018-10-18T04:04:23.926Z,14.00
2018-10-18T04:06:53.155Z,14.00
2018-10-18T04:09:22.293Z,14.00
2018-10-18T04:11:51.429Z,13.90
2018-10-18T04:14:20.715Z,13.90
2018-10-18T04:16:50.106Z,13.90
2018-10-18T04:19:19.273Z,13.80
2018-10-18T04:21:48.282Z,13.80
2018-10-18T04:24:17.586Z,13.70
2018-10-18T04:26:46.909Z,13.60
2018-10-18T04:29:16.114Z,13.60
2018-10-18T04:31:45.379Z,13.60
2018-10-18T04:34:14.642Z,13.50
2018-10-18T04:36:43.844Z,13.40
2018-10-18T04:39:13.838Z,13.40
2018-10-18T04:41:43.110Z,13.40
2018-10-18T04:44:12.329Z,13.40
2018-10-18T04:46:41.773Z,13.40
2018-10-18T04:49:10.927Z,13.30
2018-10-18T04:51:40.039Z,13.40
2018-10-18T04:54:09.219Z,13.30
2018-10-18T04:56:38.556Z,13.30
2018-10-18T04:59:07.769Z,13.30
2018-10-18T05:01:37.687Z,13.20
2018-10-18T05:04:07.508Z,13.20
2018-10-18T05:06:36.781Z,13.10
2018-10-18T05:09:08.312Z,13.10
2018-10-18T05:11:37.598Z,13.10
2018-10-18T05:14:06.799Z,13.00
2018-10-18T05:16:36.209Z,13.00
2018-10-18T05:19:05.816Z,13.00
2018-10-18T05:21:34.938Z,13.00
2018-10-18T05:24:04.360Z,13.00
2018-10-18T05:26:33.511Z,13.00
2018-10-18T05:29:02.876Z,13.00
2018-10-18T05:31:32.286Z,13.00
2018-10-18T05:34:03.151Z,13.00
2018-10-18T05:36:32.514Z,12.90
2018-10-18T05:39:01.937Z,13.00
2018-10-18T05:41:31.145Z,13.10
2018-10-18T05:44:00.361Z,13.10
2018-10-18T05:46:29.801Z,13.00
2018-10-18T05:48:59.176Z,13.00
2018-10-18T05:51:28.226Z,13.00
2018-10-18T05:53:57.636Z,12.90
2018-10-18T05:56:26.874Z,12.90
2018-10-18T05:58:56.167Z,12.80
2018-10-18T06:01:25.455Z,12.90
2018-10-18T06:03:54.715Z,12.80
2018-10-18T06:06:23.954Z,12.90
2018-10-18T06:08:53.342Z,12.90
2018-10-18T06:11:25.717Z,12.90
2018-10-18T06:13:55.015Z,12.90
2018-10-18T06:16:25.510Z,12.90
2018-10-18T06:18:54.893Z,12.90
2018-10-18T06:21:24.597Z,13.00
2018-10-18T06:23:53.848Z,13.00
2018-10-18T06:26:23.145Z,12.90
2018-10-18T06:28:52.403Z,13.00
2018-10-18T06:31:21.955Z,12.90
2018-10-18T06:33:51.308Z,12.90
2018-10-18T06:36:20.622Z,12.90
2018-10-18T06:38:49.894Z,12.90
2018-10-18T06:41:19.215Z,12.90
2018-10-18T06:43:48.490Z,12.90
2018-10-18T06:46:17.859Z,12.90
2018-10-18T06:48:47.118Z,12.80
2018-10-18T06:51:16.269Z,12.80
2018-10-18T06:53:45.495Z,12.90
2018-10-18T06:56:14.790Z,12.80
2018-10-18T06:58:44.019Z,12.80
2018-10-18T07:01:13.201Z,12.80
2018-10-18T07:03:42.481Z,12.80
2018-10-18T07:06:11.793Z,12.80
2018-10-18T07:08:41.010Z,12.70
2018-10-18T07:11:10.365Z,12.70
2018-10-18T07:13:39.657Z,12.80
2018-10-18T07:16:08.879Z,12.80
2018-10-18T07:18:38.178Z,12.90
2018-10-18T07:21:07.585Z,12.90
2018-10-18T07:23:36.886Z,13.00
2018-10-18T07:26:06.181Z,13.10
2018-10-18T07:28:35.473Z,13.20
2018-10-18T07:31:04.866Z,13.30
2018-10-18T07:33:34.282Z,13.30
2018-10-18T07:36:03.595Z,13.40
2018-10-18T07:38:32.873Z,13.50
2018-10-18T07:41:02.173Z,13.50
2018-10-18T07:43:31.378Z,13.60
2018-10-18T07:46:00.662Z,13.70
2018-10-18T07:48:29.914Z,13.80
2018-10-18T07:50:59.200Z,13.80
2018-10-18T07:53:28.591Z,13.80
2018-10-18T07:55:57.853Z,13.80
2018-10-18T07:58:27.119Z,13.80
2018-10-18T08:00:56.407Z,13.80
2018-10-18T08:03:25.667Z,13.80
2018-10-18T08:05:55.030Z,13.90
2018-10-18T08:08:24.369Z,13.90
2018-10-18T08:10:53.584Z,14.10
2018-10-18T08:13:22.823Z,14.20
2018-10-18T08:15:52.061Z,14.20
2018-10-18T08:18:21.327Z,14.40
2018-10-18T08:20:50.641Z,14.50
2018-10-18T08:23:19.765Z,14.60
2018-10-18T08:25:48.979Z,14.70
2018-10-18T08:28:18.289Z,14.80
2018-10-18T08:30:47.558Z,15.00
2018-10-18T08:33:16.914Z,15.20
2018-10-18T08:35:46.117Z,15.40
2018-10-18T08:38:15.435Z,15.60
2018-10-18T08:40:44.731Z,15.80
2018-10-18T08:43:13.997Z,16.10
2018-10-18T08:45:43.284Z,16.40
2018-10-18T08:48:12.487Z,16.80
2018-10-18T08:50:41.882Z,17.10
2018-10-18T08:53:11.129Z,17.30
2018-10-18T08:55:40.408Z,17.60
2018-10-18T08:58:09.771Z,17.80
2018-10-18T09:00:39.098Z,17.90
2018-10-18T09:03:08.385Z,18.10
2018-10-18T09:05:37.602Z,18.10
2018-10-18T09:08:06.736Z,18.20
2018-10-18T09:10:35.870Z,18.30
2018-10-18T09:13:05.587Z,18.30
2018-10-18T09:15:36.043Z,18.50
2018-10-18T09:18:05.459Z,18.70
2018-10-18T09:20:34.730Z,18.90
2018-10-18T09:23:04.005Z,19.00
2018-10-18T09:25:33.273Z,19.20
2018-10-18T09:28:02.621Z,19.40
2018-10-18T09:30:31.907Z,19.60
2018-10-18T09:33:01.130Z,19.70
2018-10-18T09:35:30.446Z,19.80
2018-10-18T09:37:59.734Z,19.90
2018-10-18T09:40:28.976Z,19.90
2018-10-18T09:42:58.315Z,20.00
2018-10-18T09:45:27.642Z,20.10
2018-10-18T09:47:56.906Z,20.10
2018-10-18T09:50:26.214Z,20.20
2018-10-18T09:52:55.521Z,20.40
2018-10-18T09:55:24.870Z,20.40
2018-10-18T09:57:54.160Z,20.60
2018-10-18T10:00:28.500Z,20.80
2018-10-18T10:03:02.881Z,21.10
2018-10-18T10:05:32.181Z,21.50
2018-10-18T10:08:01.449Z,21.90
2018-10-18T10:10:31.717Z,22.50
2018-10-18T10:13:00.912Z,23.00
2018-10-18T10:15:30.218Z,23.50
2018-10-18T10:17:59.521Z,24.00
2018-10-18T10:20:28.686Z,24.60
2018-10-18T10:22:58.091Z,24.90
2018-10-18T10:25:27.961Z,24.80
2018-10-18T10:27:57.662Z,24.90
2018-10-18T10:30:27.463Z,25.10
2018-10-18T10:32:56.717Z,25.50
2018-10-18T10:35:29.070Z,25.90
2018-10-18T10:37:58.366Z,26.40
2018-10-18T10:40:30.196Z,27.00
2018-10-18T10:42:59.484Z,27.40
2018-10-18T10:45:30.200Z,27.90
2018-10-18T10:47:59.619Z,28.30
2018-10-18T10:50:28.751Z,28.70
2018-10-18T10:52:58.218Z,29.10
2018-10-18T10:55:28.158Z,29.40
2018-10-18T10:57:57.740Z,29.60
2018-10-18T11:01:33.942Z,29.80
2018-10-18T11:04:03.211Z,29.90
2018-10-18T11:06:32.599Z,30.10
2018-10-18T11:09:02.108Z,30.20
2018-10-18T11:11:31.302Z,30.20
2018-10-18T11:14:00.918Z,30.30
2018-10-18T11:16:30.935Z,30.50
2018-10-18T11:19:00.374Z,30.70
2018-10-18T11:21:29.765Z,30.90
2018-10-18T11:23:59.199Z,30.60
2018-10-18T11:26:28.529Z,30.30
2018-10-18T11:28:57.910Z,30.00
2018-10-18T11:31:27.337Z,29.70
2018-10-18T11:33:56.688Z,29.30
2018-10-18T11:36:26.123Z,29.00
2018-10-18T11:38:55.570Z,28.80
2018-10-18T11:41:25.003Z,28.70
2018-10-18T11:43:54.368Z,28.60
2018-10-18T11:46:23.654Z,28.60
2018-10-18T11:48:52.954Z,28.70
2018-10-18T11:51:22.894Z,28.70
2018-10-18T11:53:52.281Z,28.70
2018-10-18T11:56:21.567Z,28.60
2018-10-18T11:58:51.306Z,28.60
2018-10-18T12:01:20.758Z,28.70
2018-10-18T12:03:49.927Z,28.80
2018-10-18T12:06:19.270Z,29.00
2018-10-18T12:08:48.611Z,29.20
2018-10-18T12:11:17.957Z,29.40
2018-10-18T12:13:47.190Z,29.50
2018-10-18T12:16:16.385Z,29.40
2018-10-18T12:18:45.908Z,29.30
2018-10-18T12:21:15.177Z,29.40
2018-10-18T12:23:44.957Z,29.50
2018-10-18T12:26:14.187Z,29.70
2018-10-18T12:28:43.435Z,29.90
2018-10-18T12:31:12.726Z,30.10
2018-10-18T12:33:41.943Z,30.20
2018-10-18T12:36:11.213Z,30.30
2018-10-18T12:38:40.471Z,30.20
2018-10-18T12:41:09.804Z,29.90
2018-10-18T12:43:38.969Z,29.60
2018-10-18T12:46:08.193Z,29.20
2018-10-18T12:48:37.518Z,28.70
2018-10-18T12:51:06.795Z,28.30
2018-10-18T12:53:36.175Z,28.00
2018-10-18T12:56:05.965Z,27.80
2018-10-18T12:58:35.123Z,27.50
2018-10-18T13:01:04.410Z,27.30
2018-10-18T13:03:33.567Z,26.90
2018-10-18T13:06:02.915Z,26.60
2018-10-18T13:08:32.174Z,26.30
2018-10-18T13:11:01.418Z,25.80
2018-10-18T13:13:30.599Z,25.40
2018-10-18T13:15:59.910Z,25.10
2018-10-18T13:18:29.635Z,24.80
2018-10-18T13:20:58.889Z,24.60
2018-10-18T13:23:28.403Z,24.50
2018-10-18T13:25:57.568Z,24.40
2018-10-18T13:28:26.988Z,24.30
2018-10-18T13:30:56.314Z,24.20
2018-10-18T13:33:25.485Z,24.20
2018-10-18T13:35:54.637Z,24.10
2018-10-18T13:38:23.919Z,24.00
2018-10-18T13:40:53.168Z,24.00
2018-10-18T13:43:22.364Z,23.90
2018-10-18T13:45:51.594Z,23.80
2018-10-18T13:48:20.747Z,23.70
2018-10-18T13:50:49.983Z,23.60
2018-10-18T13:53:19.191Z,23.50
2018-10-18T13:55:48.506Z,23.40
2018-10-18T13:58:17.769Z,23.30
2018-10-18T14:00:47.045Z,23.20
2018-10-18T14:03:16.378Z,23.20
2018-10-18T14:05:45.702Z,23.30
2018-10-18T14:08:14.824Z,23.20
2018-10-18T14:10:44.170Z,23.20
2018-10-18T14:13:14.404Z,23.20
2018-10-18T14:15:43.821Z,23.10
2018-10-18T14:18:13.076Z,23.10
2018-10-18T14:20:42.279Z,23.00
2018-10-18T14:23:11.627Z,22.90
2018-10-18T14:25:40.985Z,22.80
2018-10-18T14:28:10.227Z,22.70
2018-10-18T14:30:39.518Z,22.70
2018-10-18T14:33:08.656Z,22.60
2018-10-18T14:35:37.978Z,22.40
2018-10-18T14:38:07.451Z,22.40
2018-10-18T14:40:36.608Z,22.20
2018-10-18T14:43:06.200Z,22.00
2018-10-18T14:45:35.519Z,21.90
2018-10-18T14:48:05.191Z,21.70
2018-10-18T14:50:36.101Z,21.60
2018-10-18T14:53:05.383Z,21.50
2018-10-18T14:55:35.051Z,21.30
2018-10-18T14:58:04.277Z,21.20
2018-10-18T15:00:33.630Z,21.00
2018-10-18T15:03:02.922Z,20.90
2018-10-18T15:05:32.162Z,20.80
2018-10-18T15:08:01.414Z,20.60
2018-10-18T15:10:30.680Z,20.50
2018-10-18T15:12:59.866Z,20.40
2018-10-18T15:15:29.149Z,20.30
2018-10-18T15:17:58.443Z,20.10
2018-10-18T15:20:27.797Z,20.00
2018-10-18T15:22:56.919Z,19.90
2018-10-18T15:25:26.577Z,19.80
2018-10-18T15:27:55.850Z,19.60
2018-10-18T15:30:25.163Z,19.60
2018-10-18T15:32:54.427Z,19.40
2018-10-18T15:35:23.640Z,19.40
2018-10-18T15:37:52.919Z,19.30
2018-10-18T15:40:22.191Z,19.20
2018-10-18T15:42:51.440Z,19.10
2018-10-18T15:45:21.233Z,19.00
2018-10-18T15:47:50.446Z,19.00
2018-10-18T15:50:19.713Z,19.00
2018-10-18T15:52:48.993Z,18.80
2018-10-18T15:55:18.271Z,18.80
2018-10-18T15:57:47.603Z,18.70
2018-10-18T16:00:16.984Z,18.60
2018-10-18T16:02:46.279Z,18.50
2018-10-18T16:05:15.555Z,18.50
2018-10-18T16:07:44.811Z,18.40
2018-10-18T16:10:14.177Z,18.40
2018-10-18T16:12:43.659Z,18.40
2018-10-18T16:15:47.017Z,18.30
2018-10-18T16:21:35.561Z,18.10
2018-10-18T16:24:05.869Z,18.10
2018-10-18T17:01:23.345Z,17.60
2018-10-18T17:03:59.334Z,17.00
2018-10-18T17:06:28.641Z,16.90
2018-10-18T17:09:01.674Z,16.90
2018-10-18T17:11:30.935Z,16.80
2018-10-18T17:16:56.705Z,16.70
2018-10-18T17:22:57.341Z,16.60
2018-10-18T17:25:32.820Z,16.60
2018-10-18T17:30:44.197Z,16.50
2018-10-18T17:33:22.558Z,16.40
2018-10-18T17:36:03.461Z,16.40
2018-10-18T17:41:11.070Z,16.20
2018-10-18T17:43:57.602Z,16.20
2018-10-18T17:46:44.204Z,16.20
2018-10-18T17:49:13.630Z,16.20
2018-10-18T17:51:46.962Z,16.20
2018-10-18T17:54:29.070Z,16.20
2018-10-18T17:56:58.422Z,16.20
2018-10-18T17:59:27.689Z,16.20
2018-10-18T18:01:56.855Z,16.20
2018-10-18T18:04:28.469Z,16.20
2018-10-18T18:06:59.227Z,16.20
2018-10-18T18:09:33.723Z,16.10
2018-10-18T18:12:40.497Z,16.00
2018-10-18T18:15:10.630Z,16.00
2018-10-18T18:17:40.271Z,16.00
2018-10-18T18:20:11.470Z,16.00
2018-10-18T18:22:41.204Z,16.00
2018-10-18T18:25:11.615Z,16.00
2018-10-18T18:27:41.236Z,15.90
2018-10-18T18:30:13.695Z,15.90
2018-10-18T18:32:43.199Z,15.90
2018-10-18T18:35:12.396Z,15.80
2018-10-18T18:37:41.752Z,15.80
2018-10-18T18:40:11.394Z,15.70
2018-10-18T18:42:41.049Z,15.70
2018-10-18T18:45:15.386Z,15.70
2018-10-18T18:47:44.472Z,15.60
2018-10-18T18:50:13.861Z,15.60
2018-10-18T18:52:43.002Z,15.50
2018-10-18T18:55:12.170Z,15.50
2018-10-18T18:57:41.301Z,15.40
2018-10-18T19:00:12.371Z,15.40
2018-10-18T19:02:41.805Z,15.30
2018-10-18T19:05:11.082Z,15.30
2018-10-18T19:07:40.286Z,15.30
2018-10-18T19:10:09.630Z,15.20
2018-10-18T19:12:38.924Z,15.20
2018-10-18T19:15:09.034Z,15.20
2018-10-18T19:17:39.045Z,15.20
2018-10-18T19:20:08.398Z,15.10
2018-10-18T19:22:38.689Z,15.10
2018-10-18T19:25:08.641Z,15.00
2018-10-18T19:27:39.510Z,15.00
2018-10-18T19:30:10.286Z,14.90
2018-10-18T19:32:39.601Z,14.90
2018-10-18T19:35:08.886Z,14.80
2018-10-18T19:37:38.393Z,14.80
2018-10-18T19:40:08.503Z,14.80
2018-10-18T19:42:37.806Z,14.90
2018-10-18T19:45:08.190Z,14.80
2018-10-18T19:47:37.503Z,14.80
2018-10-18T19:50:07.330Z,14.80
2018-10-18T19:52:36.861Z,14.80
2018-10-18T19:55:06.846Z,14.80
2018-10-18T19:57:36.277Z,14.90
2018-10-18T20:00:06.198Z,14.90
2018-10-18T20:02:35.557Z,14.80
2018-10-18T20:05:04.974Z,14.80
2018-10-18T20:07:34.237Z,14.80
2018-10-18T20:10:03.615Z,14.80
2018-10-18T20:12:33.005Z,14.80
2018-10-18T20:15:02.281Z,14.80
2018-10-18T20:17:31.433Z,14.80
2018-10-18T20:20:00.690Z,14.80
2018-10-18T20:22:29.869Z,14.70
2018-10-18T20:24:59.756Z,14.70
2018-10-18T20:27:28.970Z,14.70
2018-10-18T20:29:58.082Z,14.60
2018-10-18T20:32:27.336Z,14.60
2018-10-18T20:34:57.290Z,14.60
2018-10-18T20:37:26.437Z,14.60
2018-10-18T20:39:55.681Z,14.60
2018-10-18T20:42:24.943Z,14.60
2018-10-18T20:44:54.179Z,14.50
2018-10-18T20:47:23.650Z,14.50
2018-10-18T20:49:52.854Z,14.50
2018-10-18T20:52:22.973Z,14.50
2018-10-18T20:54:52.182Z,14.50
2018-10-18T20:57:21.483Z,14.40
2018-10-18T20:59:50.727Z,14.40
2018-10-18T21:02:19.985Z,14.40
2018-10-18T21:04:49.198Z,14.40
2018-10-18T21:07:18.480Z,14.30
2018-10-18T21:09:47.786Z,14.30
2018-10-18T21:12:17.132Z,14.30
2018-10-18T21:14:46.353Z,14.30
2018-10-18T21:17:15.786Z,14.30
2018-10-18T21:19:45.093Z,14.30
2018-10-18T21:22:14.382Z,14.20
2018-10-18T21:24:43.656Z,14.30
2018-10-18T21:27:12.961Z,14.20
2018-10-18T21:29:42.222Z,14.20
2018-10-18T21:32:11.461Z,14.20
2018-10-18T21:34:40.733Z,14.20
2018-10-18T21:37:10.346Z,14.30
2018-10-18T21:39:39.613Z,14.30
2018-10-18T21:42:08.887Z,14.30
2018-10-18T21:44:38.613Z,14.30
2018-10-18T21:47:08.489Z,14.30
2018-10-18T21:49:37.737Z,14.30
2018-10-18T21:52:06.935Z,14.20
2018-10-18T21:54:36.057Z,14.10
2018-10-18T21:57:05.853Z,14.20
2018-10-18T21:59:35.033Z,14.10
2018-10-18T22:02:04.166Z,14.10
2018-10-18T22:04:33.495Z,14.10
2018-10-18T22:07:02.859Z,14.10
2018-10-18T22:09:32.054Z,14.10
2018-10-18T22:12:01.894Z,14.20
2018-10-18T22:14:31.323Z,14.20
2018-10-18T22:17:00.559Z,14.30
2018-10-18T22:19:29.851Z,14.30
2018-10-18T22:21:59.120Z,14.30
2018-10-18T22:24:28.345Z,14.30
2018-10-18T22:26:58.033Z,14.30
2018-10-18T22:29:27.384Z,14.30
2018-10-18T22:31:56.571Z,14.30
2018-10-18T22:34:25.708Z,14.30
2018-10-18T22:36:54.979Z,14.30
2018-10-18T22:39:24.152Z,14.30
2018-10-18T22:41:53.377Z,14.20
2018-10-18T22:44:22.598Z,14.20
2018-10-18T22:46:51.859Z,14.20
2018-10-18T22:49:21.573Z,14.20
2018-10-18T22:51:50.819Z,14.20
2018-10-18T22:54:19.892Z,14.20
2018-10-18T22:56:49.174Z,14.20
2018-10-18T22:59:18.434Z,14.20
2018-10-18T23:01:47.650Z,14.20
2018-10-18T23:04:16.722Z,14.20
2018-10-18T23:06:46.019Z,14.20
2018-10-18T23:09:15.272Z,14.20
2018-10-18T23:11:44.482Z,14.20
2018-10-18T23:14:14.111Z,14.20
2018-10-18T23:16:43.341Z,14.20
2018-10-18T23:19:12.557Z,14.10
2018-10-18T23:21:41.614Z,14.20
2018-10-18T23:24:10.873Z,14.10
2018-10-18T23:26:39.969Z,14.10
2018-10-18T23:29:09.361Z,14.10
2018-10-18T23:31:39.530Z,14.10
2018-10-18T23:34:08.782Z,14.10
2018-10-18T23:36:37.949Z,14.10
2018-10-18T23:39:09.717Z,14.00
2018-10-18T23:41:38.938Z,14.10
2018-10-18T23:44:08.154Z,14.00
2018-10-18T23:46:37.408Z,14.00
2018-10-18T23:49:06.817Z,13.90
2018-10-18T23:51:36.057Z,13.90
2018-10-18T23:54:05.471Z,13.90
2018-10-18T23:56:34.679Z,13.80
2018-10-18T23:59:03.925Z,13.80
